createdAt,value
2019-06-08T00:00:23.131Z,21.94
2019-06-08T00:03:13.492Z,21.88
2019-06-08T00:06:05.162Z,21.85
2019-06-08T00:08:55.036Z,21.76
2019-06-08T00:11:45.369Z,21.71
2019-06-08T00:14:34.966Z,21.69
2019-06-08T00:17:37.484Z,21.63
2019-06-08T00:20:19.643Z,21.58
2019-06-08T00:23:09.995Z,21.47
2019-06-08T00:25:59.662Z,21.43
2019-06-08T00:28:50.071Z,21.38
2019-06-08T00:31:40.300Z,21.32
2019-06-08T00:34:30.250Z,21.22
2019-06-08T00:37:20.802Z,21.18
2019-06-08T00:40:11.694Z,21.12
2019-06-08T00:43:01.775Z,21.04
2019-06-08T00:45:52.892Z,21.02
2019-06-08T00:48:46.203Z,20.97
2019-06-08T00:51:36.208Z,20.88
2019-06-08T00:54:29.746Z,20.84
2019-06-08T00:57:19.788Z,20.79
2019-06-08T01:00:12.073Z,20.74
2019-06-08T01:03:02.331Z,20.69
2019-06-08T01:05:51.263Z,20.67
2019-06-08T01:08:41.558Z,20.66
2019-06-08T01:11:31.717Z,20.64
2019-06-08T01:14:21.272Z,20.59
2019-06-08T01:17:11.020Z,20.58
2019-06-08T01:20:01.287Z,20.55
2019-06-08T01:22:51.061Z,20.52
2019-06-08T01:25:40.855Z,20.50
2019-06-08T01:28:31.031Z,20.51
2019-06-08T01:31:22.303Z,20.50
2019-06-08T01:34:16.713Z,20.46
2019-06-08T01:37:06.575Z,20.44
2019-06-08T01:39:56.415Z,20.40
2019-06-08T01:42:46.448Z,20.37
2019-06-08T01:45:36.823Z,20.28
2019-06-08T01:48:28.238Z,20.27
2019-06-08T01:51:18.048Z,20.22
2019-06-08T01:54:08.955Z,20.19
2019-06-08T01:56:59.033Z,20.15
2019-06-08T01:59:48.596Z,20.11
2019-06-08T02:02:38.603Z,20.08
2019-06-08T02:05:30.297Z,20.04
2019-06-08T02:08:20.581Z,20.06
2019-06-08T02:11:10.710Z,20.01
2019-06-08T02:14:01.007Z,20.02
2019-06-08T02:16:51.180Z,19.98
2019-06-08T02:19:41.024Z,19.94
2019-06-08T02:22:31.432Z,19.91
2019-06-08T02:25:29.412Z,19.90
2019-06-08T02:28:19.999Z,19.90
2019-06-08T02:31:09.969Z,19.87
2019-06-08T02:34:00.018Z,19.88
2019-06-08T02:36:49.984Z,19.89
2019-06-08T02:39:39.987Z,19.88
2019-06-08T02:42:31.120Z,19.87
2019-06-08T02:45:22.482Z,19.87
2019-06-08T02:48:12.895Z,19.83
2019-06-08T02:51:03.375Z,19.81
2019-06-08T02:53:53.593Z,19.76
2019-06-08T02:56:46.346Z,19.73
2019-06-08T02:59:40.965Z,19.71
2019-06-08T03:02:33.982Z,19.69
2019-06-08T03:05:25.930Z,19.68
2019-06-08T03:08:15.615Z,19.69
2019-06-08T03:11:07.438Z,19.69
2019-06-08T03:13:59.821Z,19.69
2019-06-08T03:16:49.339Z,19.68
2019-06-08T03:19:40.101Z,19.68
2019-06-08T03:22:32.059Z,19.63
2019-06-08T03:25:22.240Z,19.63
2019-06-08T03:28:12.310Z,19.61
2019-06-08T03:31:02.198Z,19.62
2019-06-08T03:33:55.886Z,19.61
2019-06-08T03:36:54.650Z,19.63
2019-06-08T03:39:36.918Z,19.61
2019-06-08T03:42:26.930Z,19.59
2019-06-08T03:45:17.007Z,19.60
2019-06-08T03:48:07.789Z,19.61
2019-06-08T03:50:57.637Z,19.59
2019-06-08T03:53:47.601Z,19.57
2019-06-08T03:56:40.064Z,19.54
2019-06-08T03:59:30.102Z,19.55
2019-06-08T04:02:20.436Z,19.57
2019-06-08T04:05:10.481Z,19.58
2019-06-08T04:08:00.476Z,19.63
2019-06-08T04:10:50.511Z,19.69
2019-06-08T04:13:42.050Z,19.73
2019-06-08T04:16:32.415Z,19.78
2019-06-08T04:19:22.419Z,19.82
2019-06-08T04:22:12.665Z,19.85
2019-06-08T04:25:02.753Z,19.86
2019-06-08T04:27:53.162Z,19.84
2019-06-08T04:30:44.810Z,19.80
2019-06-08T04:33:35.010Z,19.83
2019-06-08T04:36:24.852Z,19.80
2019-06-08T04:39:14.677Z,19.85
2019-06-08T04:42:04.886Z,19.81
2019-06-08T04:44:54.955Z,19.84
2019-06-08T04:47:46.103Z,19.87
2019-06-08T04:50:36.095Z,19.88
2019-06-08T04:53:26.285Z,19.88
2019-06-08T04:56:16.245Z,19.86
2019-06-08T04:59:07.670Z,19.86
2019-06-08T05:01:57.345Z,19.89
2019-06-08T05:04:47.277Z,19.91
2019-06-08T05:07:37.001Z,19.94
2019-06-08T05:10:26.881Z,19.98
2019-06-08T05:13:17.218Z,20.01
2019-06-08T05:16:08.625Z,20.05
2019-06-08T05:18:58.987Z,20.04
2019-06-08T05:21:49.925Z,20.08
2019-06-08T05:24:39.668Z,20.08
2019-06-08T05:27:30.795Z,20.07
2019-06-08T05:30:21.501Z,20.03
2019-06-08T05:33:11.917Z,19.97
2019-06-08T05:36:01.849Z,20.04
2019-06-08T05:38:51.889Z,20.07
2019-06-08T05:41:41.657Z,20.10
2019-06-08T05:44:31.478Z,20.11
2019-06-08T05:47:21.616Z,20.15
2019-06-08T05:50:11.877Z,20.12
2019-06-08T05:53:02.156Z,20.14
2019-06-08T05:55:52.263Z,20.15
2019-06-08T05:58:42.282Z,20.15
2019-06-08T06:01:32.244Z,20.18
2019-06-08T06:04:22.319Z,20.23
2019-06-08T06:07:12.183Z,20.23
2019-06-08T06:10:02.333Z,20.21
2019-06-08T06:12:51.949Z,20.18
2019-06-08T06:15:42.908Z,20.19
2019-06-08T06:18:32.980Z,20.18
2019-06-08T06:21:23.274Z,20.19
2019-06-08T06:24:13.010Z,20.22
2019-06-08T06:27:03.064Z,20.22
2019-06-08T06:29:52.983Z,20.19
2019-06-08T06:32:43.862Z,20.22
2019-06-08T06:35:33.903Z,20.20
2019-06-08T06:38:23.888Z,20.22
2019-06-08T06:41:13.908Z,20.24
2019-06-08T06:44:04.808Z,20.19
2019-06-08T06:46:55.309Z,20.20
2019-06-08T06:49:44.795Z,20.14
2019-06-08T06:52:34.639Z,20.11
2019-06-08T06:55:25.506Z,20.16
2019-06-08T06:58:16.820Z,20.15
2019-06-08T07:01:07.257Z,20.22
2019-06-08T07:03:57.440Z,20.38
2019-06-08T07:06:48.123Z,20.50
2019-06-08T07:09:38.372Z,20.55
2019-06-08T07:12:28.520Z,20.54
2019-06-08T07:15:27.745Z,20.58
2019-06-08T07:18:18.070Z,20.58
2019-06-08T07:21:07.602Z,20.60
2019-06-08T07:23:57.190Z,20.66
2019-06-08T07:26:46.701Z,20.70
2019-06-08T07:29:37.018Z,20.71
2019-06-08T07:32:28.198Z,20.73
2019-06-08T07:35:18.126Z,20.81
2019-06-08T07:38:07.456Z,20.89
2019-06-08T07:40:59.931Z,20.99
2019-06-08T07:43:50.683Z,21.04
2019-06-08T07:46:40.851Z,21.19
2019-06-08T07:49:30.711Z,21.31
2019-06-08T07:52:20.786Z,21.40
2019-06-08T07:55:11.105Z,21.39
2019-06-08T07:58:01.740Z,21.49
2019-06-08T08:00:52.985Z,21.56
2019-06-08T08:03:43.140Z,21.60
2019-06-08T08:06:33.359Z,21.63
2019-06-08T08:09:23.183Z,21.74
2019-06-08T08:12:13.061Z,21.79
2019-06-08T08:15:03.027Z,21.73
2019-06-08T08:17:53.866Z,21.71
2019-06-08T08:20:43.850Z,21.64
2019-06-08T08:23:34.254Z,21.52
2019-06-08T08:26:27.135Z,21.40
2019-06-08T08:29:17.651Z,21.29
2019-06-08T08:32:09.961Z,21.33
2019-06-08T08:35:02.690Z,21.30
2019-06-08T08:37:56.309Z,21.33
2019-06-08T08:40:43.914Z,21.39
2019-06-08T08:43:37.578Z,21.39
2019-06-08T08:46:28.560Z,21.30
2019-06-08T08:49:20.053Z,21.22
2019-06-08T08:52:11.596Z,21.16
2019-06-08T08:55:02.307Z,21.08
2019-06-08T08:57:54.808Z,21.06
2019-06-08T09:00:45.464Z,21.03
2019-06-08T09:03:35.554Z,20.92
2019-06-08T09:06:27.822Z,20.88
2019-06-08T09:09:18.812Z,20.81
2019-06-08T09:12:10.288Z,20.85
2019-06-08T09:15:02.021Z,20.75
2019-06-08T09:17:53.819Z,20.76
2019-06-08T09:20:43.767Z,20.78
2019-06-08T09:23:33.656Z,20.80
2019-06-08T09:26:23.898Z,20.81
2019-06-08T09:29:14.127Z,20.81
2019-06-08T09:32:04.689Z,20.89
2019-06-08T09:34:57.165Z,21.02
2019-06-08T09:37:48.622Z,21.32
2019-06-08T09:40:38.702Z,21.63
2019-06-08T09:43:29.258Z,21.89
2019-06-08T09:46:19.574Z,22.12
2019-06-08T09:49:11.753Z,22.31
2019-06-08T09:52:03.363Z,22.45
2019-06-08T09:54:54.660Z,22.58
2019-06-08T09:57:45.690Z,22.74
2019-06-08T10:00:39.234Z,22.94
2019-06-08T10:03:31.976Z,22.94
2019-06-08T10:06:23.215Z,23.11
2019-06-08T10:09:18.851Z,23.34
2019-06-08T10:12:28.136Z,23.45
2019-06-08T10:15:18.562Z,23.52
2019-06-08T10:18:12.873Z,23.72
2019-06-08T10:21:04.951Z,24.07
2019-06-08T10:23:54.892Z,24.29
2019-06-08T10:26:44.759Z,24.48
2019-06-08T10:29:38.184Z,24.75
2019-06-08T10:32:28.204Z,24.94
2019-06-08T10:35:20.968Z,25.10
2019-06-08T10:38:11.985Z,25.43
2019-06-08T10:41:12.987Z,25.74
2019-06-08T10:43:54.934Z,26.03
2019-06-08T10:46:45.307Z,26.36
2019-06-08T10:49:38.448Z,26.72
2019-06-08T10:52:28.728Z,26.93
2019-06-08T10:55:19.140Z,27.09
2019-06-08T10:58:11.303Z,27.36
2019-06-08T11:01:04.178Z,27.63
2019-06-08T11:03:52.756Z,27.95
2019-06-08T11:06:42.916Z,28.27
2019-06-08T11:09:32.563Z,28.37
2019-06-08T11:12:22.505Z,28.61
2019-06-08T11:15:12.219Z,28.75
2019-06-08T11:18:05.862Z,29.01
2019-06-08T11:20:53.946Z,29.21
2019-06-08T11:23:44.286Z,29.24
2019-06-08T11:26:34.208Z,28.96
2019-06-08T11:29:23.945Z,28.90
2019-06-08T11:32:14.790Z,29.27
2019-06-08T11:35:06.505Z,30.00
2019-06-08T11:37:58.493Z,30.71
2019-06-08T11:40:48.647Z,31.15
2019-06-08T11:43:38.965Z,31.56
2019-06-08T11:46:28.925Z,32.09
2019-06-08T11:49:19.286Z,32.72
2019-06-08T11:52:11.181Z,32.60
2019-06-08T11:55:02.554Z,32.58
2019-06-08T11:57:54.389Z,32.96
2019-06-08T12:01:00.691Z,33.64
2019-06-08T12:03:49.824Z,34.37
2019-06-08T12:06:39.696Z,35.05
2019-06-08T12:09:29.549Z,35.48
2019-06-08T12:12:21.310Z,35.39
2019-06-08T12:15:13.274Z,34.63
2019-06-08T12:18:03.433Z,33.75
2019-06-08T12:20:53.944Z,32.98
2019-06-08T12:23:44.147Z,32.33
2019-06-08T12:26:35.624Z,31.39
2019-06-08T12:29:28.239Z,30.96
2019-06-08T12:32:18.427Z,30.50
2019-06-08T12:35:10.930Z,30.25
2019-06-08T12:38:00.787Z,30.18
2019-06-08T12:40:50.481Z,30.05
2019-06-08T12:43:40.712Z,29.74
2019-06-08T12:46:30.302Z,29.38
2019-06-08T12:49:20.538Z,29.23
2019-06-08T12:52:12.544Z,29.11
2019-06-08T12:55:06.788Z,29.03
2019-06-08T12:57:53.768Z,28.94
2019-06-08T13:00:44.299Z,28.81
2019-06-08T13:03:34.379Z,28.74
2019-06-08T13:06:24.562Z,28.59
2019-06-08T13:09:15.039Z,28.64
2019-06-08T13:12:07.918Z,28.52
2019-06-08T13:14:59.271Z,28.36
2019-06-08T13:17:50.615Z,28.29
2019-06-08T13:20:40.661Z,28.25
2019-06-08T13:23:30.760Z,28.26
2019-06-08T13:26:27.483Z,28.40
2019-06-08T13:29:13.776Z,28.50
2019-06-08T13:32:03.530Z,28.84
2019-06-08T13:34:52.827Z,28.94
2019-06-08T13:37:42.672Z,29.17
2019-06-08T13:40:32.461Z,29.18
2019-06-08T13:43:22.793Z,29.16
2019-06-08T13:46:13.712Z,29.21
2019-06-08T13:49:03.888Z,29.07
2019-06-08T13:51:54.171Z,29.38
2019-06-08T13:54:44.011Z,29.90
2019-06-08T13:57:34.037Z,30.59
2019-06-08T14:00:38.121Z,31.31
2019-06-08T14:03:27.893Z,32.02
2019-06-08T14:06:19.025Z,32.64
2019-06-08T14:09:09.647Z,32.92
2019-06-08T14:11:59.477Z,33.11
2019-06-08T14:14:49.592Z,33.10
2019-06-08T14:17:39.611Z,33.19
2019-06-08T14:20:34.145Z,32.97
2019-06-08T14:23:22.626Z,32.47
2019-06-08T14:26:12.442Z,32.13
2019-06-08T14:29:02.080Z,31.63
2019-06-08T14:31:52.572Z,31.30
2019-06-08T14:34:42.392Z,31.08
2019-06-08T14:37:32.342Z,30.86
2019-06-08T14:40:23.452Z,30.49
2019-06-08T14:43:14.031Z,30.22
2019-06-08T14:46:04.334Z,29.86
2019-06-08T14:48:54.218Z,29.63
2019-06-08T14:51:50.264Z,29.47
2019-06-08T14:54:40.261Z,29.09
2019-06-08T14:57:30.890Z,28.88
2019-06-08T15:00:24.461Z,28.77
2019-06-08T15:03:17.842Z,28.58
2019-06-08T15:06:07.952Z,28.39
2019-06-08T15:08:58.182Z,28.26
2019-06-08T15:11:48.131Z,28.23
2019-06-08T15:14:38.574Z,28.19
2019-06-08T15:17:30.836Z,28.15
2019-06-08T15:20:20.164Z,28.10
2019-06-08T15:23:10.348Z,27.98
2019-06-08T15:26:00.440Z,27.78
2019-06-08T15:28:49.984Z,27.73
2019-06-08T15:31:41.074Z,27.68
2019-06-08T15:34:32.961Z,27.64
2019-06-08T15:37:23.225Z,27.57
2019-06-08T15:40:14.836Z,27.51
2019-06-08T15:43:05.481Z,27.39
2019-06-08T15:45:55.194Z,27.34
2019-06-08T15:48:45.228Z,27.27
2019-06-08T15:51:40.162Z,27.20
2019-06-08T15:54:29.021Z,27.13
2019-06-08T15:57:17.976Z,27.04
2019-06-08T16:00:10.288Z,27.03
2019-06-08T16:03:00.093Z,27.02
2019-06-08T16:05:49.908Z,27.03
2019-06-08T16:08:39.826Z,27.02
2019-06-08T16:11:30.299Z,26.97
2019-06-08T16:14:20.084Z,27.03
2019-06-08T16:17:09.793Z,27.00
2019-06-08T16:19:59.859Z,26.96
2019-06-08T16:22:49.596Z,26.87
2019-06-08T16:25:40.049Z,26.75
2019-06-08T16:28:29.913Z,26.75
2019-06-08T16:31:20.093Z,26.72
2019-06-08T16:34:09.659Z,26.68
2019-06-08T16:36:59.631Z,26.70
2019-06-08T16:39:49.353Z,26.70
2019-06-08T16:42:38.774Z,26.71
2019-06-08T16:45:28.967Z,26.66
2019-06-08T16:48:19.143Z,26.51
2019-06-08T16:51:08.972Z,26.42
2019-06-08T16:53:58.469Z,26.37
2019-06-08T16:56:48.497Z,26.31
2019-06-08T16:59:38.786Z,26.22
2019-06-08T17:02:28.667Z,26.19
2019-06-08T17:05:17.941Z,26.13
2019-06-08T17:08:08.548Z,26.13
2019-06-08T17:10:58.319Z,26.09
2019-06-08T17:13:48.009Z,26.08
2019-06-08T17:16:38.841Z,26.08
2019-06-08T17:19:29.972Z,26.05
2019-06-08T17:22:20.920Z,22.49
2019-06-08T17:25:11.416Z,26.02
2019-06-08T17:28:01.265Z,26.01
2019-06-08T17:30:51.291Z,25.97
2019-06-08T17:33:41.562Z,25.90
2019-06-08T17:38:56.316Z,25.88
2019-06-08T17:41:46.303Z,25.83
2019-06-08T17:44:36.462Z,25.84
2019-06-08T17:47:26.589Z,25.80
2019-06-08T17:50:17.578Z,25.77
2019-06-08T17:53:07.252Z,25.72
2019-06-08T17:55:58.972Z,25.69
2019-06-08T17:58:49.201Z,25.66
2019-06-08T18:01:39.735Z,25.59
2019-06-08T18:04:29.319Z,25.51
2019-06-08T18:07:18.857Z,25.46
2019-06-08T18:10:08.526Z,25.37
2019-06-08T18:12:58.855Z,25.30
2019-06-08T18:15:48.489Z,25.22
2019-06-08T18:18:41.813Z,25.19
2019-06-08T18:21:30.766Z,25.12
2019-06-08T18:24:20.613Z,25.09
2019-06-08T18:27:10.627Z,24.99
2019-06-08T18:30:08.015Z,24.91
2019-06-08T18:32:53.997Z,24.85
2019-06-08T18:35:44.490Z,24.78
2019-06-08T18:38:34.906Z,24.68
2019-06-08T18:41:27.000Z,24.61
2019-06-08T18:44:17.532Z,24.49
2019-06-08T18:47:07.877Z,24.41
2019-06-08T18:49:58.075Z,24.32
2019-06-08T18:52:49.709Z,24.23
2019-06-08T18:55:41.574Z,24.16
2019-06-08T18:58:31.604Z,24.07
2019-06-08T19:01:22.915Z,23.98
2019-06-08T19:04:12.911Z,23.89
2019-06-08T19:07:03.929Z,23.77
2019-06-08T19:09:54.798Z,23.69
2019-06-08T19:12:46.448Z,23.64
2019-06-08T19:15:41.885Z,23.55
2019-06-08T19:18:29.415Z,23.45
2019-06-08T19:21:19.305Z,23.37
2019-06-08T19:24:09.852Z,23.28
2019-06-08T19:26:59.964Z,23.17
2019-06-08T19:29:51.724Z,23.07
2019-06-08T19:32:42.974Z,23.00
2019-06-08T19:35:34.850Z,22.88
2019-06-08T19:38:27.852Z,22.80
2019-06-08T19:41:17.877Z,22.71
2019-06-08T19:44:07.887Z,22.60
2019-06-08T19:46:58.332Z,22.49
2019-06-08T19:49:54.476Z,22.40
2019-06-08T19:52:42.108Z,22.30
2019-06-08T19:55:31.449Z,22.20
2019-06-08T19:58:21.350Z,22.14
2019-06-08T20:01:11.117Z,22.05
2019-06-08T20:04:01.616Z,21.97
2019-06-08T20:06:51.381Z,21.86
2019-06-08T20:09:41.074Z,21.75
2019-06-08T20:12:30.388Z,21.65
2019-06-08T20:15:20.381Z,21.55
2019-06-08T20:18:10.267Z,20.91
2019-06-08T20:21:00.056Z,21.36
2019-06-08T20:23:50.964Z,21.28
2019-06-08T20:26:42.230Z,21.18
2019-06-08T20:29:31.606Z,21.09
2019-06-08T20:32:21.449Z,21.01
2019-06-08T20:35:11.336Z,20.90
2019-06-08T20:38:01.106Z,20.83
2019-06-08T20:40:52.340Z,20.72
2019-06-08T20:43:42.811Z,20.61
2019-06-08T20:46:32.760Z,20.54
2019-06-08T20:49:22.792Z,20.44
2019-06-08T20:52:13.010Z,20.35
2019-06-08T20:55:03.329Z,20.25
2019-06-08T20:57:53.812Z,20.17
2019-06-08T21:00:44.064Z,20.11
2019-06-08T21:03:34.093Z,20.01
2019-06-08T21:06:24.243Z,19.94
2019-06-08T21:09:14.580Z,19.83
2019-06-08T21:12:04.413Z,19.75
2019-06-08T21:14:55.512Z,19.67
2019-06-08T21:17:49.076Z,19.57
2019-06-08T21:20:37.850Z,19.49
2019-06-08T21:23:31.889Z,19.40
2019-06-08T21:26:20.161Z,19.30
2019-06-08T21:29:09.729Z,19.20
2019-06-08T21:32:02.384Z,19.12
2019-06-08T21:34:52.682Z,19.04
2019-06-08T21:37:42.683Z,18.94
2019-06-08T21:40:32.363Z,18.86
2019-06-08T21:43:22.218Z,18.78
2019-06-08T21:46:11.949Z,18.71
2019-06-08T21:49:01.798Z,18.64
2019-06-08T21:51:53.003Z,18.57
2019-06-08T21:54:43.309Z,18.50
2019-06-08T21:57:33.207Z,18.44
2019-06-08T22:00:38.854Z,18.39
2019-06-08T22:03:17.527Z,18.32
2019-06-08T22:06:08.011Z,18.24
2019-06-08T22:08:59.478Z,18.16
2019-06-08T22:11:50.981Z,18.10
2019-06-08T22:14:40.400Z,18.03
2019-06-08T22:17:30.214Z,17.99
2019-06-08T22:20:20.238Z,17.93
2019-06-08T22:23:09.904Z,17.86
2019-06-08T22:26:01.208Z,17.83
2019-06-08T22:28:53.489Z,17.77
2019-06-08T22:31:43.547Z,17.76
2019-06-08T22:34:33.566Z,17.69
2019-06-08T22:37:23.858Z,17.65
2019-06-08T22:40:14.325Z,17.58
2019-06-08T22:43:04.334Z,17.51
2019-06-08T22:45:54.573Z,17.48
2019-06-08T22:48:43.708Z,17.42
2019-06-08T22:51:33.600Z,17.38
2019-06-08T22:54:23.413Z,17.33
2019-06-08T22:57:13.362Z,17.28
2019-06-08T23:00:14.415Z,17.23
2019-06-08T23:03:00.363Z,17.17
2019-06-08T23:05:48.782Z,17.13
2019-06-08T23:08:38.316Z,17.06
2019-06-08T23:11:28.412Z,17.01
2019-06-08T23:14:18.996Z,16.96
2019-06-08T23:17:08.761Z,16.91
2019-06-08T23:19:59.313Z,16.87
2019-06-08T23:22:50.099Z,16.81
2019-06-08T23:25:40.050Z,16.73
2019-06-08T23:28:30.195Z,16.70
2019-06-08T23:31:25.293Z,16.62
2019-06-08T23:34:12.372Z,16.57
2019-06-08T23:37:06.010Z,16.51
2019-06-08T23:39:54.578Z,16.47
2019-06-08T23:42:44.594Z,16.46
2019-06-08T23:45:34.068Z,16.47
2019-06-08T23:48:23.690Z,16.50
2019-06-08T23:51:13.535Z,16.51
2019-06-08T23:54:04.388Z,16.50
2019-06-08T23:56:55.596Z,16.52
2019-06-08T23:59:47.695Z,16.53
